Time;durP1;ratioP1;P1;durP2;ratioP2;P2;SDS_P1;SDS_P2;PMS_P1;PMS_P2;Temp;Humidity;BMP_temperature;BMP_pressure;BME280_temperature;BME280_humidity;BME280_pressure;Samples;Min_cycle;Max_cycle;Signal;HPM_P1;HPM_P2
2022/08/13 00:01:13;;;;;;;1.50;1.40;;;15.90;99.90;;;;;;5084800;28;20221;-72
2022/08/13 00:03:42;;;;;;;1.40;1.40;;;15.90;99.90;;;;;;5080272;28;20215;-72
2022/08/13 00:06:10;;;;;;;1.30;1.30;;;15.80;99.90;;;;;;5077572;28;20229;-72
2022/08/13 00:08:38;;;;;;;1.58;1.48;;;15.80;99.90;;;;;;5084304;28;20209;-73
2022/08/13 00:11:07;;;;;;;1.25;1.25;;;15.80;99.90;;;;;;5081454;28;20582;-73
2022/08/13 00:13:36;;;;;;;1.63;1.52;;;15.80;99.90;;;;;;5082134;28;20282;-73
2022/08/13 00:16:04;;;;;;;1.33;1.33;;;15.80;99.90;;;;;;5080523;28;20309;-72
2022/08/13 00:18:31;;;;;;;1.50;1.40;;;15.80;99.90;;;;;;5085406;28;20225;-73
2022/08/13 00:21:00;;;;;;;1.65;1.55;;;15.80;99.90;;;;;;5081267;28;20228;-72
2022/08/13 00:23:28;;;;;;;1.58;1.30;;;15.70;99.90;;;;;;5078962;28;20567;-72
2022/08/13 00:25:58;;;;;;;1.63;1.52;;;15.80;99.90;;;;;;5078178;28;20593;-73
2022/08/13 00:28:29;;;;;;;1.30;1.20;;;15.80;99.90;;;;;;5079712;28;20744;-72
2022/08/13 00:30:59;;;;;;;1.58;1.48;;;15.70;99.90;;;;;;5081822;28;20825;-73
2022/08/13 00:33:26;;;;;;;1.45;1.38;;;15.70;99.90;;;;;;5083028;28;20723;-72
2022/08/13 00:35:55;;;;;;;1.75;1.50;;;15.70;99.90;;;;;;5076464;28;20222;-72
2022/08/13 00:38:24;;;;;;;1.70;1.60;;;15.70;99.90;;;;;;5083029;28;20737;-72
2022/08/13 00:40:53;;;;;;;1.80;1.70;;;15.70;99.90;;;;;;5083881;28;20217;-72
2022/08/13 00:43:21;;;;;;;1.40;1.30;;;15.60;99.90;;;;;;5083855;28;20608;-72
2022/08/13 00:45:49;;;;;;;1.25;1.23;;;15.60;99.90;;;;;;5083248;28;20222;-72
2022/08/13 00:51:05;;;;;;;1.50;1.40;;;15.60;99.90;;;;;;5079400;28;20224;-72
2022/08/13 00:53:34;;;;;;;1.52;1.42;;;15.50;99.90;;;;;;5079565;28;20224;-72
2022/08/13 00:56:01;;;;;;;1.70;1.60;;;15.50;99.90;;;;;;5080524;28;20221;-73
2022/08/13 00:58:29;;;;;;;1.88;1.77;;;15.50;99.90;;;;;;5083907;28;20197;-73
2022/08/13 01:00:58;;;;;;;1.77;1.67;;;15.40;99.90;;;;;;5082630;28;20228;-73
2022/08/13 01:03:29;;;;;;;2.42;1.60;;;15.40;99.90;;;;;;5080456;28;20220;-72
2022/08/13 01:05:59;;;;;;;1.77;1.67;;;15.30;99.90;;;;;;5076564;28;20246;-72
2022/08/13 01:08:31;;;;;;;3.72;1.60;;;15.40;99.90;;;;;;5083970;28;20212;-72
2022/08/13 01:11:02;;;;;;;1.60;1.50;;;15.40;99.90;;;;;;5077560;28;20225;-72
2022/08/13 01:13:33;;;;;;;1.30;1.30;;;15.40;99.90;;;;;;5081846;28;20270;-72
2022/08/13 01:16:01;;;;;;;1.58;1.48;;;15.40;99.90;;;;;;5080641;28;20260;-72
2022/08/13 01:18:31;;;;;;;1.80;1.70;;;15.50;99.90;;;;;;5081792;28;20574;-72
2022/08/13 01:21:02;;;;;;;1.90;1.80;;;15.50;99.90;;;;;;5078763;28;20226;-72
2022/08/13 01:23:31;;;;;;;1.65;1.58;;;15.50;99.90;;;;;;5083010;28;20825;-73
2022/08/13 01:25:59;;;;;;;1.58;1.52;;;15.50;99.90;;;;;;5080415;28;20344;-73
2022/08/13 01:28:28;;;;;;;1.83;1.73;;;15.50;99.90;;;;;;5078977;28;20247;-72
2022/08/13 01:30:57;;;;;;;2.47;1.92;;;15.50;99.90;;;;;;5081368;28;20249;-72
2022/08/13 01:33:27;;;;;;;1.77;1.67;;;15.40;99.90;;;;;;5078816;28;20228;-72
2022/08/13 01:35:55;;;;;;;1.92;1.83;;;15.40;99.90;;;;;;5081340;28;20217;-72
2022/08/13 01:38:24;;;;;;;1.83;1.73;;;15.40;99.90;;;;;;5079841;28;20194;-72
2022/08/13 01:40:52;;;;;;;2.10;2.00;;;15.40;99.90;;;;;;5078607;28;20225;-72
2022/08/13 01:43:21;;;;;;;1.75;1.65;;;15.50;99.90;;;;;;5079253;28;20225;-72
2022/08/13 01:45:51;;;;;;;1.50;1.50;;;15.40;99.90;;;;;;5080998;28;20691;-73
2022/08/13 01:51:08;;;;;;;1.50;1.40;;;15.40;99.90;;;;;;5077405;28;20232;-72
2022/08/13 01:53:35;;;;;;;1.80;1.70;;;15.40;99.90;;;;;;5085465;28;20213;-73
2022/08/13 01:56:04;;;;;;;1.77;1.67;;;15.40;99.90;;;;;;5082622;28;20214;-72
2022/08/13 01:58:33;;;;;;;1.52;1.42;;;15.40;99.90;;;;;;5079763;28;20205;-72
2022/08/13 02:01:03;;;;;;;1.73;1.63;;;15.30;99.90;;;;;;5082780;28;20224;-72
2022/08/13 02:03:30;;;;;;;1.75;1.65;;;15.30;99.90;;;;;;5078128;28;20213;-71
2022/08/13 02:05:57;;;;;;;1.75;1.65;;;15.30;99.90;;;;;;5080540;28;20217;-73
2022/08/13 02:08:26;;;;;;;1.73;1.40;;;15.20;99.90;;;;;;5080947;28;20197;-72
2022/08/13 02:10:56;;;;;;;1.92;1.80;;;15.20;99.90;;;;;;5079404;28;20252;-72
2022/08/13 02:13:29;;;;;;;1.85;1.70;;;15.10;99.90;;;;;;5080974;28;20274;-72
2022/08/13 02:15:57;;;;;;;1.73;1.63;;;15.20;99.90;;;;;;5081709;28;20580;-73
2022/08/13 02:18:26;;;;;;;1.85;1.75;;;15.20;99.90;;;;;;5079565;28;20197;-72
2022/08/13 02:20:58;;;;;;;1.65;1.55;;;15.20;99.90;;;;;;5079558;28;20642;-72
2022/08/13 02:23:27;;;;;;;1.83;1.73;;;15.20;99.90;;;;;;5081141;28;20224;-72
2022/08/13 02:25:55;;;;;;;1.90;1.80;;;15.20;99.90;;;;;;5083538;28;20224;-72
2022/08/13 02:28:23;;;;;;;2.05;1.95;;;15.20;99.90;;;;;;5083898;28;20209;-73
2022/08/13 02:30:56;;;;;;;1.92;1.83;;;15.20;99.90;;;;;;5085174;28;20221;-72
2022/08/13 02:33:24;;;;;;;2.05;1.95;;;15.20;99.90;;;;;;5083651;28;20221;-72
2022/08/13 02:35:51;;;;;;;1.70;1.60;;;15.10;99.90;;;;;;5081587;28;20614;-72
2022/08/13 02:38:19;;;;;;;2.22;1.98;;;15.10;99.90;;;;;;5080156;28;20190;-72
2022/08/13 02:43:33;;;;;;;1.75;1.65;;;15.00;99.90;;;;;;5079744;28;20228;-72
2022/08/13 02:46:01;;;;;;;1.60;1.50;;;15.00;99.90;;;;;;5077151;28;20213;-72
2022/08/13 02:48:29;;;;;;;1.60;1.50;;;15.00;99.90;;;;;;5076904;28;20205;-72
2022/08/13 02:50:58;;;;;;;1.65;1.40;;;15.00;99.90;;;;;;5081140;28;20218;-73
2022/08/13 02:53:25;;;;;;;1.83;1.73;;;15.00;99.90;;;;;;5082492;28;20221;-72
2022/08/13 02:55:53;;;;;;;1.65;1.55;;;14.90;99.90;;;;;;5078549;28;20229;-72
2022/08/13 02:58:20;;;;;;;1.58;1.48;;;14.90;99.90;;;;;;5082722;28;20206;-74
2022/08/13 03:00:49;;;;;;;2.55;1.63;;;14.90;99.90;;;;;;5077737;28;20210;-72
2022/08/13 03:03:17;;;;;;;1.70;1.60;;;14.90;99.90;;;;;;5074487;28;20653;-72
2022/08/13 03:05:44;;;;;;;1.73;1.63;;;14.90;99.90;;;;;;5082063;28;20213;-72
2022/08/13 03:08:12;;;;;;;1.52;1.42;;;14.80;99.90;;;;;;5076340;28;20684;-72
2022/08/13 03:10:41;;;;;;;1.48;1.48;;;14.80;99.90;;;;;;5080031;28;20279;-72
2022/08/13 03:13:15;;;;;;;1.52;1.50;;;14.80;99.90;;;;;;5080640;28;20217;-72
2022/08/13 03:15:45;;;;;;;1.80;1.70;;;14.80;99.90;;;;;;5083743;28;20602;-72
2022/08/13 03:18:14;;;;;;;1.92;1.83;;;14.80;99.90;;;;;;5084696;28;20190;-72
2022/08/13 03:20:41;;;;;;;1.80;1.70;;;14.80;99.90;;;;;;5084525;28;20225;-72
2022/08/13 03:23:10;;;;;;;1.65;1.55;;;14.70;99.90;;;;;;5083906;28;20210;-72
2022/08/13 03:25:38;;;;;;;1.70;1.60;;;14.70;99.90;;;;;;5086112;28;20222;-72
2022/08/13 03:28:06;;;;;;;1.80;1.70;;;14.70;99.90;;;;;;5084786;28;20193;-74
2022/08/13 03:30:34;;;;;;;1.90;1.80;;;14.70;99.90;;;;;;5085742;28;20221;-72
2022/08/13 03:33:06;;;;;;;1.60;1.50;;;14.70;99.90;;;;;;5088266;28;20218;-72
2022/08/13 03:35:37;;;;;;;1.90;1.80;;;14.70;99.90;;;;;;5083448;28;20283;-72
2022/08/13 03:38:06;;;;;;;1.80;1.70;;;14.70;99.90;;;;;;5086191;28;20250;-72
2022/08/13 03:43:15;;;;;;;2.15;2.05;;;14.70;99.90;;;;;;5086904;28;20228;-72
2022/08/13 03:45:44;;;;;;;1.80;1.70;;;14.60;99.90;;;;;;5087368;28;20229;-72
2022/08/13 03:48:13;;;;;;;1.83;1.73;;;14.60;99.90;;;;;;5082129;28;20205;-72
2022/08/13 03:50:41;;;;;;;1.88;1.75;;;14.60;99.90;;;;;;5079148;28;20225;-72
2022/08/13 03:53:09;;;;;;;1.80;1.70;;;14.60;99.90;;;;;;5082861;28;20221;-72
2022/08/13 03:55:37;;;;;;;2.08;1.95;;;14.60;99.90;;;;;;5083399;28;20228;-72
2022/08/13 03:58:05;;;;;;;1.75;1.65;;;14.60;99.90;;;;;;5081819;28;20225;-72
2022/08/13 04:00:33;;;;;;;2.05;1.80;;;14.60;99.90;;;;;;5079984;28;20216;-72
2022/08/13 04:03:02;;;;;;;1.73;1.63;;;14.60;99.90;;;;;;5085022;28;20221;-72
2022/08/13 04:05:30;;;;;;;1.58;1.48;;;14.60;99.90;;;;;;5083625;28;20255;-74
2022/08/13 04:07:59;;;;;;;1.88;1.77;;;14.60;99.90;;;;;;5085964;28;20193;-72
2022/08/13 04:10:26;;;;;;;2.28;1.70;;;14.50;99.90;;;;;;5085718;28;20322;-72
2022/08/13 04:12:54;;;;;;;1.80;1.70;;;14.50;99.90;;;;;;5081796;28;20220;-74
2022/08/13 04:15:21;;;;;;;1.35;1.35;;;14.50;99.90;;;;;;5082846;28;20217;-72
2022/08/13 04:17:48;;;;;;;1.67;1.60;;;14.50;99.90;;;;;;5084323;28;20653;-72
2022/08/13 04:20:15;;;;;;;1.90;1.73;;;14.50;99.90;;;;;;5078019;28;20649;-72
2022/08/13 04:22:42;;;;;;;1.75;1.65;;;14.50;99.90;;;;;;5081798;28;20598;-74
2022/08/13 04:25:12;;;;;;;2.00;1.90;;;14.40;99.90;;;;;;5083127;28;20646;-72
2022/08/13 04:27:40;;;;;;;1.60;1.50;;;14.40;99.90;;;;;;5079240;28;20221;-72
2022/08/13 04:30:08;;;;;;;1.75;1.65;;;14.40;99.90;;;;;;5081128;28;20316;-72
2022/08/13 04:32:42;;;;;;;1.58;1.48;;;14.40;99.90;;;;;;5081778;28;20226;-72
2022/08/13 04:35:10;;;;;;;1.60;1.50;;;14.40;99.90;;;;;;5082077;28;20222;-72
2022/08/13 04:37:38;;;;;;;1.83;1.60;;;14.40;99.90;;;;;;5084968;28;20205;-73
2022/08/13 04:40:06;;;;;;;1.50;1.40;;;14.40;99.90;;;;;;5081555;28;20213;-73
2022/08/13 04:42:53;;;;;;;1.90;1.67;;;14.40;99.90;;;;;;5083948;28;20264;-72
2022/08/13 04:45:20;;;;;;;1.20;1.20;;;14.40;99.90;;;;;;5077947;28;20225;-72
2022/08/13 04:47:47;;;;;;;1.80;1.70;;;14.40;99.90;;;;;;5081990;28;20224;-72
2022/08/13 04:50:15;;;;;;;2.03;1.92;;;14.40;99.90;;;;;;5076658;28;20218;-72
2022/08/13 04:52:43;;;;;;;1.90;1.80;;;14.40;99.90;;;;;;5082157;28;20573;-72
2022/08/13 04:55:12;;;;;;;1.80;1.70;;;14.40;99.90;;;;;;5080390;28;20894;-72
2022/08/13 04:57:41;;;;;;;1.58;1.50;;;14.40;99.90;;;;;;5083256;28;20260;-73
2022/08/13 05:00:10;;;;;;;1.30;1.30;;;14.60;99.90;;;;;;5076802;28;20229;-73
2022/08/13 05:02:38;;;;;;;1.85;1.75;;;14.90;99.90;;;;;;5082244;28;20317;-73
2022/08/13 05:05:07;;;;;;;1.80;1.70;;;15.10;99.90;;;;;;5081085;28;20599;-72
2022/08/13 05:07:34;;;;;;;2.00;1.90;;;15.20;99.90;;;;;;5081572;28;20229;-72
2022/08/13 05:10:01;;;;;;;1.88;1.77;;;15.30;99.90;;;;;;5082604;28;20233;-72
2022/08/13 05:12:28;;;;;;;1.92;1.83;;;15.50;99.90;;;;;;5077637;28;20735;-72
2022/08/13 05:14:56;;;;;;;1.65;1.55;;;15.60;99.90;;;;;;5076637;28;20337;-73
2022/08/13 05:17:25;;;;;;;2.00;1.90;;;15.80;99.90;;;;;;5079330;28;20197;-73
2022/08/13 05:19:52;;;;;;;1.77;1.67;;;16.00;99.90;;;;;;5080732;28;21074;-72
2022/08/13 05:22:23;;;;;;;2.10;1.90;;;16.10;99.90;;;;;;5083280;28;20207;-72
2022/08/13 05:24:50;;;;;;;1.70;1.60;;;16.40;99.90;;;;;;5080841;28;20218;-72
2022/08/13 05:27:19;;;;;;;2.28;2.17;;;16.50;99.90;;;;;;5082007;28;20317;-73
2022/08/13 05:29:46;;;;;;;1.98;1.88;;;16.60;99.90;;;;;;5081980;28;20745;-72
2022/08/13 05:32:13;;;;;;;1.80;1.70;;;16.70;99.90;;;;;;5079958;28;20267;-73
2022/08/13 05:34:41;;;;;;;1.88;1.77;;;16.70;99.90;;;;;;5078553;28;20220;-72
2022/08/13 05:37:15;;;;;;;1.92;1.83;;;16.90;99.90;;;;;;5083523;28;20194;-72
2022/08/13 05:39:43;;;;;;;2.15;1.70;;;17.10;99.90;;;;;;5082830;28;20224;-72
2022/08/13 05:42:11;;;;;;;2.00;1.90;;;17.40;99.90;;;;;;5081291;28;20462;-73
2022/08/13 05:44:38;;;;;;;2.00;1.90;;;17.50;99.90;;;;;;5075391;28;20267;-72
2022/08/13 05:47:06;;;;;;;2.45;2.22;;;17.50;99.90;;;;;;5086293;28;20217;-72
2022/08/13 05:49:33;;;;;;;2.13;2.03;;;17.50;99.90;;;;;;5078186;28;20233;-72
2022/08/13 05:52:02;;;;;;;2.08;1.92;;;17.40;99.90;;;;;;5080792;28;20198;-72
2022/08/13 05:54:31;;;;;;;2.08;1.98;;;17.40;99.90;;;;;;5082216;28;20225;-72
2022/08/13 05:56:58;;;;;;;1.98;1.88;;;17.30;99.90;;;;;;5080688;28;20204;-73
2022/08/13 06:05:03;;;;;;;2.85;2.05;;;17.30;99.90;;;;;;5084752;28;20318;-72
2022/08/13 06:07:32;;;;;;;2.13;2.03;;;17.50;99.90;;;;;;5091553;28;20864;-73
2022/08/13 06:09:59;;;;;;;2.05;1.95;;;17.50;99.90;;;;;;5093681;28;20739;-72
2022/08/13 06:12:26;;;;;;;4.43;2.35;;;17.50;99.90;;;;;;5089702;28;20198;-73
2022/08/13 06:14:56;;;;;;;4.03;2.50;;;17.50;99.90;;;;;;5095318;28;20251;-73
2022/08/13 06:17:25;;;;;;;2.40;2.30;;;17.60;99.90;;;;;;5088893;28;20652;-72
2022/08/13 06:19:52;;;;;;;2.47;2.35;;;17.70;99.90;;;;;;5099609;28;20747;-73
2022/08/13 06:22:20;;;;;;;3.10;2.30;;;18.00;99.90;;;;;;5095020;28;20204;-72
2022/08/13 06:24:50;;;;;;;2.78;2.58;;;18.10;99.90;;;;;;5095895;28;20224;-72
2022/08/13 06:27:17;;;;;;;2.70;2.50;;;18.10;99.90;;;;;;5098207;28;20209;-72
2022/08/13 06:29:46;;;;;;;2.70;2.50;;;18.10;99.90;;;;;;5094396;28;20740;-74
2022/08/13 06:32:16;;;;;;;2.83;2.63;;;18.10;99.90;;;;;;5095593;28;20606;-73
2022/08/13 06:34:43;;;;;;;2.47;2.28;;;18.00;99.90;;;;;;5094943;28;20240;-72
2022/08/13 06:37:11;;;;;;;2.78;2.58;;;18.10;99.90;;;;;;5101691;28;20185;-72
2022/08/13 06:39:39;;;;;;;2.47;2.00;;;18.20;99.90;;;;;;5096890;28;20224;-73
2022/08/13 06:42:07;;;;;;;2.30;2.20;;;18.30;99.90;;;;;;5096133;28;20193;-73
2022/08/13 06:44:35;;;;;;;2.22;2.13;;;18.30;99.90;;;;;;5095322;28;20220;-73
2022/08/13 06:47:04;;;;;;;1.80;1.70;;;18.40;99.90;;;;;;5095187;28;20698;-72
2022/08/13 06:49:32;;;;;;;3.85;2.47;;;18.60;99.90;;;;;;5096982;28;20228;-72
2022/08/13 06:51:59;;;;;;;2.13;2.03;;;18.70;99.90;;;;;;5094760;28;20248;-73
2022/08/13 06:54:28;;;;;;;2.20;1.98;;;18.90;99.90;;;;;;5100378;28;20225;-73
2022/08/13 06:56:56;;;;;;;2.53;1.90;;;19.10;99.90;;;;;;5094890;28;20285;-72
2022/08/13 06:59:25;;;;;;;3.58;2.20;;;19.10;99.90;;;;;;5092753;28;20204;-73
2022/08/13 07:02:00;;;;;;;2.15;2.05;;;19.20;99.90;;;;;;5091112;28;20208;-72
2022/08/13 07:04:28;;;;;;;1.98;1.88;;;19.20;99.90;;;;;;5089937;28;20350;-73
2022/08/13 07:06:57;;;;;;;1.90;1.80;;;19.30;99.90;;;;;;5095192;28;20220;-72
2022/08/13 07:09:25;;;;;;;2.75;2.00;;;19.40;99.90;;;;;;5093091;28;20194;-72
2022/08/13 07:11:52;;;;;;;2.50;1.80;;;19.50;99.90;;;;;;5091538;28;20197;-73
2022/08/13 07:14:19;;;;;;;2.22;2.10;;;19.50;99.90;;;;;;5094518;28;20217;-72
2022/08/13 07:16:47;;;;;;;2.17;2.05;;;19.30;99.90;;;;;;5099565;28;20190;-72
2022/08/13 07:19:15;;;;;;;2.53;2.13;;;19.20;99.90;;;;;;5098197;28;20659;-71
2022/08/13 07:21:43;;;;;;;1.92;1.83;;;19.30;99.90;;;;;;5088777;28;20197;-72
2022/08/13 07:24:12;;;;;;;1.80;1.70;;;19.50;99.90;;;;;;5091843;28;20241;-72
2022/08/13 07:26:39;;;;;;;1.90;1.80;;;19.60;99.90;;;;;;5085092;28;20243;-72
2022/08/13 07:29:08;;;;;;;2.50;2.25;;;19.40;99.90;;;;;;5081512;28;20681;-71
2022/08/13 07:31:39;;;;;;;2.30;2.17;;;19.40;99.90;;;;;;5086449;28;20263;-72
2022/08/13 07:34:09;;;;;;;2.67;2.00;;;19.30;99.90;;;;;;5088456;28;20761;-73
2022/08/13 07:36:40;;;;;;;2.50;2.30;;;19.30;99.90;;;;;;5083837;28;20292;-72
2022/08/13 07:39:10;;;;;;;2.78;2.50;;;19.30;99.90;;;;;;5094682;28;20221;-71
2022/08/13 07:41:40;;;;;;;2.15;2.05;;;19.30;99.90;;;;;;5085339;28;20226;-72
2022/08/13 07:44:13;;;;;;;2.13;2.03;;;19.40;99.90;;;;;;5084411;28;20249;-72
2022/08/13 07:46:44;;;;;;;2.67;2.47;;;19.70;99.90;;;;;;5081535;28;20672;-72
2022/08/13 07:49:13;;;;;;;2.00;1.90;;;19.80;99.90;;;;;;5080338;28;20201;-73
2022/08/13 07:51:42;;;;;;;2.38;2.17;;;19.70;99.90;;;;;;5085815;28;20506;-72
2022/08/13 07:54:10;;;;;;;2.00;1.90;;;19.90;99.90;;;;;;5086632;28;20310;-73
2022/08/13 07:56:37;;;;;;;1.80;1.70;;;20.10;99.90;;;;;;5088382;28;20215;-73
2022/08/13 07:59:07;;;;;;;2.30;2.20;;;20.30;99.90;;;;;;5084115;28;20884;-74
2022/08/13 08:01:45;;;;;;;1.95;1.85;;;20.40;99.90;;;;;;5079871;28;20214;-74
2022/08/13 08:04:15;;;;;;;1.90;1.80;;;20.20;99.90;;;;;;5086207;28;20255;-74
2022/08/13 08:06:44;;;;;;;2.28;2.08;;;20.40;99.90;;;;;;5111476;27;20211;-73
2022/08/13 08:09:16;;;;;;;2.70;2.20;;;20.60;99.90;;;;;;5109442;27;20212;-74
2022/08/13 08:14:28;;;;;;;2.00;1.90;;;20.60;99.90;;;;;;5088367;28;20890;-73
2022/08/13 08:16:55;;;;;;;1.90;1.80;;;20.60;99.90;;;;;;5087277;28;20258;-73
2022/08/13 08:19:24;;;;;;;2.40;2.20;;;20.70;99.90;;;;;;5085074;28;20201;-74
2022/08/13 08:21:52;;;;;;;4.28;2.10;;;20.70;99.90;;;;;;5088844;28;20205;-73
2022/08/13 08:24:19;;;;;;;2.17;2.03;;;20.90;99.90;;;;;;5086971;28;20239;-74
2022/08/13 08:26:48;;;;;;;1.80;1.70;;;21.20;99.90;;;;;;5085454;28;20205;-73
2022/08/13 08:29:16;;;;;;;2.28;1.80;;;21.20;99.90;;;;;;5084833;28;20193;-72
2022/08/13 08:31:44;;;;;;;2.58;2.38;;;21.00;99.90;;;;;;5086923;28;20317;-74
2022/08/13 08:34:12;;;;;;;2.13;2.00;;;20.90;99.90;;;;;;5085724;28;20225;-73
2022/08/13 08:36:42;;;;;;;2.20;1.80;;;20.90;99.90;;;;;;5108714;28;20197;-74
2022/08/13 08:44:58;;;;;;;2.17;2.00;;;20.90;99.90;;;;;;5080654;28;20220;-72
2022/08/13 08:47:29;;;;;;;2.20;2.10;;;20.90;99.90;;;;;;5078418;28;20233;-73
2022/08/13 08:49:59;;;;;;;2.05;1.95;;;20.70;99.90;;;;;;5077995;28;20257;-73
2022/08/13 08:53:19;;;;;;;1.77;1.67;;;20.90;99.90;;;;;;5075547;28;20221;-72
2022/08/13 08:55:16;;;;;;;1.80;1.70;;;20.80;99.90;;;;;;5089314;27;20216;-72
2022/08/13 08:57:46;;;;;;;2.17;2.00;;;20.90;99.90;;;;;;5099160;27;20188;-72
2022/08/13 09:00:15;;;;;;;2.42;2.22;;;21.20;99.90;;;;;;5097073;27;20217;-73
2022/08/13 09:02:43;;;;;;;1.98;1.88;;;21.30;99.90;;;;;;5100438;27;20212;-72
2022/08/13 09:05:15;;;;;;;2.20;2.00;;;21.30;99.90;;;;;;5101011;27;20243;-75
2022/08/13 09:07:46;;;;;;;2.30;2.20;;;21.20;99.90;;;;;;5099075;27;20225;-72
2022/08/13 09:10:15;;;;;;;2.80;1.90;;;21.20;99.90;;;;;;5094353;27;20217;-73
2022/08/13 09:12:44;;;;;;;1.70;1.60;;;21.40;99.90;;;;;;5099755;27;20220;-74
2022/08/13 09:15:12;;;;;;;2.05;1.95;;;21.50;99.90;;;;;;5109168;27;20292;-73
2022/08/13 09:17:40;;;;;;;2.35;2.15;;;21.40;99.90;;;;;;5104982;27;20258;-73
2022/08/13 09:20:13;;;;;;;2.00;1.90;;;21.30;99.90;;;;;;5105942;27;20212;-73
2022/08/13 09:22:44;;;;;;;1.98;1.88;;;21.50;99.90;;;;;;5103071;27;20212;-73
2022/08/13 09:25:16;;;;;;;2.20;2.00;;;21.70;99.90;;;;;;5105683;27;20217;-73
2022/08/13 09:27:44;;;;;;;2.08;1.98;;;21.70;99.90;;;;;;5100641;27;20209;-73
2022/08/13 09:30:13;;;;;;;2.17;1.98;;;22.00;99.90;;;;;;5103949;27;20273;-73
2022/08/13 09:32:41;;;;;;;2.15;2.05;;;22.20;99.90;;;;;;5103678;27;20205;-73
2022/08/13 09:35:09;;;;;;;1.95;1.85;;;22.30;99.90;;;;;;5108643;27;20216;-73
2022/08/13 09:37:36;;;;;;;1.98;1.83;;;22.50;99.90;;;;;;5107543;27;20227;-73
2022/08/13 09:40:07;;;;;;;1.75;1.60;;;22.80;99.90;;;;;;5108409;27;20280;-76
2022/08/13 09:42:44;;;;;;;1.70;1.60;;;23.00;99.90;;;;;;5115134;27;20225;-75
2022/08/13 09:45:12;;;;;;;2.13;1.98;;;23.30;99.90;;;;;;5107780;27;20216;-73
2022/08/13 09:47:40;;;;;;;1.90;1.80;;;23.50;99.90;;;;;;5108351;27;20249;-74
2022/08/13 09:50:08;;;;;;;2.30;2.10;;;23.60;99.90;;;;;;5109134;27;20972;-73
2022/08/13 09:52:35;;;;;;;2.17;1.92;;;23.90;99.90;;;;;;5109272;27;20221;-73
2022/08/13 09:55:05;;;;;;;1.88;1.77;;;23.80;99.90;;;;;;5104080;27;21070;-74
2022/08/13 09:57:32;;;;;;;1.70;1.60;;;23.90;99.90;;;;;;5106596;27;20246;-74
2022/08/13 10:00:00;;;;;;;1.77;1.67;;;24.00;99.90;;;;;;5107246;27;21791;-74
2022/08/13 10:02:27;;;;;;;1.83;1.60;;;24.00;99.90;;;;;;5101024;28;20205;-74
2022/08/13 10:04:57;;;;;;;1.50;1.40;;;24.00;99.90;;;;;;5106723;27;20221;-74
2022/08/13 10:07:24;;;;;;;1.90;1.80;;;24.10;99.90;;;;;;5107266;27;20193;-74
2022/08/13 10:09:52;;;;;;;1.92;1.83;;;23.90;99.90;;;;;;5099922;27;20235;-75
2022/08/13 10:12:19;;;;;;;2.13;1.92;;;24.10;99.90;;;;;;5100791;27;20249;-75
2022/08/13 10:14:47;;;;;;;2.10;2.00;;;24.20;99.90;;;;;;5097144;27;20221;-74
2022/08/13 10:17:16;;;;;;;2.33;2.13;;;23.90;99.90;;;;;;5102100;27;20197;-77
2022/08/13 10:19:44;;;;;;;1.90;1.80;;;23.60;99.90;;;;;;5096914;27;20216;-78
2022/08/13 10:22:11;;;;;;;3.15;2.17;;;23.60;99.90;;;;;;5101298;27;20196;-74
2022/08/13 10:24:38;;;;;;;2.15;1.90;;;23.60;99.90;;;;;;5094399;27;20224;-76
2022/08/13 10:27:06;;;;;;;1.80;1.70;;;23.80;99.90;;;;;;5095694;27;20640;-75
2022/08/13 10:29:33;;;;;;;1.80;1.70;;;24.00;99.90;;;;;;5096005;27;20954;-75
2022/08/13 10:32:01;;;;;;;2.40;2.20;;;24.10;99.90;;;;;;5097477;27;20204;-76
2022/08/13 10:34:29;;;;;;;2.00;1.70;;;24.10;99.90;;;;;;5099377;27;20256;-76
2022/08/13 10:36:57;;;;;;;2.08;1.88;;;24.40;99.90;;;;;;5100306;27;20201;-76
2022/08/13 10:39:25;;;;;;;1.90;1.67;;;24.90;99.90;;;;;;5094243;27;20196;-76
2022/08/13 10:41:54;;;;;;;2.30;2.10;;;25.00;99.90;;;;;;5096743;28;20258;-76
2022/08/13 10:44:21;;;;;;;1.80;1.70;;;25.00;99.90;;;;;;5101423;27;20220;-75
2022/08/13 10:46:48;;;;;;;2.17;1.90;;;24.80;99.90;;;;;;5106522;28;20200;-77
2022/08/13 10:49:16;;;;;;;1.85;1.75;;;24.70;99.90;;;;;;5108415;27;20235;-75
2022/08/13 10:51:44;;;;;;;1.42;1.35;;;24.70;99.90;;;;;;5107963;28;20200;-75
2022/08/13 10:54:11;;;;;;;2.10;1.90;;;24.70;99.90;;;;;;5113044;27;20717;-79
2022/08/13 10:56:38;;;;;;;1.70;1.60;;;24.70;99.90;;;;;;5113831;28;20188;-76
2022/08/13 10:59:06;;;;;;;1.60;1.50;;;24.80;99.90;;;;;;5107788;28;20204;-74
2022/08/13 11:01:33;;;;;;;2.03;1.80;;;25.10;99.90;;;;;;5103948;28;20302;-75
2022/08/13 11:04:04;;;;;;;1.95;1.85;;;25.20;99.90;;;;;;5112098;28;20220;-76
2022/08/13 11:06:32;;;;;;;1.70;1.60;;;25.50;99.90;;;;;;5119509;27;20284;-77
2022/08/13 11:09:00;;;;;;;1.80;1.70;;;25.80;99.90;;;;;;5103400;28;20215;-74
2022/08/13 11:11:28;;;;;;;1.38;1.30;;;25.80;99.90;;;;;;5104610;27;20219;-80
2022/08/13 11:13:55;;;;;;;1.75;1.65;;;25.70;99.90;;;;;;5109236;28;20220;-76
2022/08/13 11:19:14;;;;;;;4.38;1.83;;;25.80;99.90;;;;;;5110543;27;20194;-75
2022/08/13 11:21:43;;;;;;;1.73;1.63;;;25.90;99.90;;;;;;5110155;28;20742;-76
2022/08/13 11:24:12;;;;;;;1.48;1.38;;;25.80;99.90;;;;;;5113484;27;20215;-75
2022/08/13 11:26:39;;;;;;;1.40;1.25;;;25.70;99.90;;;;;;5118480;27;20197;-75
2022/08/13 11:29:07;;;;;;;1.52;1.40;;;25.80;99.90;;;;;;5120681;27;20212;-76
2022/08/13 11:31:34;;;;;;;1.38;1.27;;;25.50;99.90;;;;;;5112043;27;20289;-75
2022/08/13 11:34:01;;;;;;;1.92;1.30;;;25.70;99.90;;;;;;5116502;27;20313;-75
2022/08/13 11:36:28;;;;;;;1.77;1.20;;;25.90;99.90;;;;;;5110383;27;20216;-75
2022/08/13 11:38:56;;;;;;;1.50;1.40;;;26.10;99.90;;;;;;5120568;27;20199;-76
2022/08/13 11:41:25;;;;;;;1.73;1.40;;;26.20;99.90;;;;;;5117538;27;20228;-76
2022/08/13 11:43:52;;;;;;;1.02;1.00;;;26.30;99.90;;;;;;5115728;27;20221;-76
2022/08/13 11:46:20;;;;;;;1.58;1.48;;;26.40;99.90;;;;;;5114207;27;20244;-76
2022/08/13 11:48:48;;;;;;;1.60;1.50;;;26.30;99.90;;;;;;5118773;27;20212;-76
2022/08/13 11:51:15;;;;;;;1.80;1.50;;;26.30;99.90;;;;;;5117716;27;20216;-76
2022/08/13 11:53:42;;;;;;;1.50;1.40;;;26.20;99.90;;;;;;5116214;27;20232;-74
2022/08/13 11:56:09;;;;;;;1.55;1.45;;;26.40;99.90;;;;;;5119920;27;20276;-74
2022/08/13 11:58:38;;;;;;;1.60;1.50;;;26.70;99.90;;;;;;5121128;27;20188;-75
2022/08/13 12:01:06;;;;;;;1.50;1.40;;;27.00;99.90;;;;;;5110095;27;20221;-73
2022/08/13 12:03:35;;;;;;;1.70;1.60;;;27.50;99.90;;;;;;5113119;27;20223;-74
2022/08/13 12:06:02;;;;;;;1.50;1.40;;;27.70;99.90;;;;;;5108477;27;20525;-75
2022/08/13 12:08:29;;;;;;;1.60;1.50;;;27.70;99.90;;;;;;5114870;27;21022;-77
2022/08/13 12:10:57;;;;;;;1.77;1.50;;;27.70;99.90;;;;;;5110624;27;20220;-74
2022/08/13 12:13:24;;;;;;;1.40;1.30;;;27.80;99.90;;;;;;5116702;27;20722;-74
2022/08/13 12:15:53;;;;;;;1.23;1.23;;;27.70;99.90;;;;;;5111422;27;20208;-75
2022/08/13 12:18:20;;;;;;;1.33;1.23;;;27.40;99.90;;;;;;5109140;27;20204;-77
2022/08/13 12:20:48;;;;;;;2.25;1.40;;;27.20;99.90;;;;;;5114317;27;20216;-76
2022/08/13 12:23:15;;;;;;;1.20;1.15;;;27.30;99.90;;;;;;5109108;27;20232;-76
2022/08/13 12:25:42;;;;;;;1.20;1.20;;;27.40;99.90;;;;;;5116016;27;20258;-78
2022/08/13 12:28:14;;;;;;;1.42;1.30;;;27.60;99.90;;;;;;5106323;27;20281;-81
2022/08/13 12:30:43;;;;;;;0.93;0.93;;;27.70;99.90;;;;;;5106000;27;20224;-77
2022/08/13 12:33:11;;;;;;;1.60;1.50;;;27.80;99.90;;;;;;5109130;27;20814;-77
2022/08/13 12:35:39;;;;;;;1.92;1.20;;;27.90;99.90;;;;;;5107482;27;20223;-76
2022/08/13 12:38:10;;;;;;;1.40;1.20;;;27.90;99.90;;;;;;5113057;27;20189;-78
2022/08/13 12:40:38;;;;;;;1.50;0.90;;;27.80;99.90;;;;;;5101424;27;20607;-76
2022/08/13 12:43:06;;;;;;;1.25;1.25;;;28.00;99.90;;;;;;5116602;27;20909;-79
2022/08/13 12:45:35;;;;;;;1.40;1.30;;;28.10;99.90;;;;;;5097906;27;20223;-74
2022/08/13 12:48:07;;;;;;;1.13;0.98;;;28.10;99.90;;;;;;5103983;27;20830;-75
2022/08/13 12:50:36;;;;;;;3.03;1.38;;;28.10;99.90;;;;;;5105070;27;20216;-75
2022/08/13 12:53:06;;;;;;;1.48;1.38;;;28.10;99.90;;;;;;5102986;27;20215;-75
2022/08/13 12:55:34;;;;;;;1.50;1.40;;;28.30;99.90;;;;;;5095533;27;20244;-75
2022/08/13 12:58:12;;;;;;;1.60;1.10;;;28.30;99.90;;;;;;5100935;27;20493;-75
2022/08/13 13:00:39;;;;;;;1.60;1.30;;;28.20;99.90;;;;;;5099147;27;20220;-75
2022/08/13 13:03:06;;;;;;;1.00;1.00;;;28.20;99.90;;;;;;5103307;27;20706;-75
2022/08/13 13:05:35;;;;;;;1.00;1.00;;;28.20;99.90;;;;;;5102914;27;20764;-79
2022/08/13 13:08:02;;;;;;;1.13;1.13;;;28.20;99.90;;;;;;5104432;27;20207;-75
2022/08/13 13:10:29;;;;;;;1.67;0.90;;;28.00;99.90;;;;;;5100396;27;20225;-76
2022/08/13 13:12:56;;;;;;;0.93;0.90;;;28.00;99.90;;;;;;5100416;28;20216;-78
2022/08/13 13:15:23;;;;;;;0.90;0.90;;;27.90;99.90;;;;;;5097782;27;20310;-77
2022/08/13 13:17:50;;;;;;;1.27;1.10;;;28.10;99.90;;;;;;5100866;27;20204;-77
2022/08/13 13:20:18;;;;;;;1.10;1.02;;;28.10;99.90;;;;;;5096371;27;20216;-76
2022/08/13 13:22:46;;;;;;;1.77;1.08;;;28.20;99.90;;;;;;5099939;27;20221;-76